Terminal Aerodrome Forecast
Issued by NWS

Home | Current Version | Previous Version | Text Only | Print | Product List | Glossary On
Versions: 1 2 3 4 5 6 7 8 9 10 11 12
935
FTUS42 TJSJ 170541
TAFIST
TAF
TIST 170541Z 1706/1806 07012KT P6SM -SHRA SCT025 SCT050
     FM171400 08015G21KT P6SM VCSH SCT025 SCT040 SCT050
     FM172230 06010KT P6SM FEW030 SCT050=

USA.gov is the U.S. government's official web portal to all federal, state and local government web resources and services.